createdAt,value
2016-06-06T08:40:12.902Z,49.56
2016-06-06T08:41:12.889Z,49.19
2016-06-06T08:42:12.908Z,48.51
2016-06-06T08:43:12.911Z,46.88
2016-06-06T08:44:12.897Z,47.66
2016-06-06T08:45:12.900Z,47.17
2016-06-06T08:46:12.902Z,46.78
2016-06-06T08:47:12.905Z,46.61
2016-06-06T08:48:12.893Z,46.12
2016-06-06T08:49:12.911Z,47.09
2016-06-06T08:50:12.913Z,46.7
2016-06-06T08:51:12.901Z,45.36
2016-06-06T08:52:12.919Z,47.09
2016-06-06T08:53:12.906Z,46.51
2016-06-06T08:54:12.924Z,47
2016-06-06T08:55:12.912Z,48.07
2016-06-06T08:56:12.914Z,47
2016-06-06T08:57:12.760Z,47.78
2016-06-06T08:58:12.919Z,48.34
2016-06-06T08:59:12.813Z,49.76
2016-06-06T09:00:12.925Z,50.12
2016-06-06T09:01:12.928Z,50.12
2016-06-06T09:02:12.931Z,52.14
2016-06-06T09:03:12.917Z,50.68
2016-06-06T09:04:12.920Z,51.82
2016-06-06T09:05:12.923Z,53.25
2016-06-06T09:06:12.925Z,54.9
2016-06-06T09:07:12.928Z,56.3
2016-06-06T09:08:12.930Z,56.5
2016-06-06T09:09:12.918Z,56.86
2016-06-06T09:10:12.920Z,58.8
2016-06-06T09:11:12.908Z,58.12
2016-06-06T09:12:12.911Z,57.22
2016-06-06T09:13:12.913Z,56.67
2016-06-06T09:14:12.916Z,56.34
2016-06-06T09:15:12.918Z,56.92
2016-06-06T09:16:12.921Z,54.2
2016-06-06T09:17:12.924Z,53.06
2016-06-06T09:18:12.911Z,51.72
2016-06-06T09:19:12.913Z,51.75
2016-06-06T09:20:12.932Z,50.7
2016-06-06T09:21:12.903Z,49.95
2016-06-06T09:22:12.921Z,47.8
2016-06-06T09:23:12.908Z,48.68
2016-06-06T09:24:12.911Z,49.85
2016-06-06T09:25:12.929Z,50.04
2016-06-06T09:26:12.916Z,48.51
2016-06-06T09:27:12.919Z,47.63
2016-06-06T09:28:12.922Z,46.76
2016-06-06T09:29:12.924Z,47.27
2016-06-06T09:30:12.943Z,47.09
2016-06-06T09:31:12.929Z,47.49
2016-06-06T09:32:12.932Z,46.9
2016-06-06T09:33:12.935Z,46.04
2016-06-06T09:34:12.954Z,46.83
2016-06-06T09:35:12.941Z,47.31
2016-06-06T09:36:12.943Z,46.63
2016-06-06T09:37:12.962Z,46.17
2016-06-06T09:38:12.948Z,44.51
2016-06-06T09:39:12.951Z,43.92
2016-06-06T09:40:12.939Z,45.29
2016-06-06T09:41:12.957Z,44.51
2016-06-06T09:42:12.944Z,46.26
2016-06-06T09:43:12.962Z,45.02
2016-06-06T09:44:12.964Z,44.35
2016-06-06T09:45:12.953Z,44.26
2016-06-06T09:46:12.955Z,44.55
2016-06-06T09:47:12.973Z,43.77
2016-06-06T09:48:12.960Z,44.45
2016-06-06T09:49:13.010Z,43.67
2016-06-06T09:50:12.980Z,43.48
2016-06-06T09:51:12.983Z,43.67
2016-06-06T09:52:12.986Z,43.59
2016-06-06T09:53:12.989Z,43.89
2016-06-06T09:54:12.992Z,44.38
2016-06-06T09:55:13.010Z,44.45
2016-06-06T09:56:12.997Z,43.67
2016-06-06T09:57:13.000Z,42.71
2016-06-06T09:58:13.002Z,44.26
2016-06-06T09:59:13.037Z,45.16
2016-06-06T10:00:13.008Z,45.36
2016-06-06T10:01:13.011Z,44.48
2016-06-06T10:02:13.029Z,43.99
2016-06-06T10:03:13.016Z,42.81
2016-06-06T10:04:13.034Z,43.79
2016-06-06T10:05:13.037Z,43.2
2016-06-06T10:06:13.040Z,43.99
2016-06-06T10:07:13.043Z,43.59
2016-06-06T10:08:13.045Z,43.13
2016-06-06T10:09:13.064Z,43.23
2016-06-06T10:10:13.050Z,43.81
2016-06-06T10:11:13.054Z,44.18
2016-06-06T10:12:13.056Z,42.35
2016-06-06T10:13:13.058Z,43.54
2016-06-06T10:14:13.453Z,42.17
2016-06-06T10:15:13.080Z,42.15
2016-06-06T10:16:12.926Z,43.13
2016-06-06T10:17:13.085Z,42.35
2016-06-06T10:18:12.931Z,41.49
2016-06-06T10:19:13.106Z,42.15
2016-06-06T10:20:13.109Z,41.88
2016-06-06T10:21:13.111Z,40.8
2016-06-06T10:22:13.099Z,40.82
2016-06-06T10:23:13.117Z,41.49
2016-06-06T10:24:12.963Z,43.63
2016-06-06T10:25:13.122Z,42.56
2016-06-06T10:26:13.125Z,42.58
2016-06-06T10:27:13.143Z,41.41
2016-06-06T10:28:13.129Z,41.52
2016-06-06T10:29:13.774Z,42.48
2016-06-06T10:30:13.135Z,43.17
2016-06-06T10:31:13.154Z,41.11
2016-06-06T10:32:13.156Z,42.31
2016-06-06T10:33:13.159Z,42.31
2016-06-06T10:34:13.162Z,39.59
2016-06-06T10:35:13.181Z,39.9
2016-06-06T10:36:13.167Z,39.11
2016-06-06T10:37:13.170Z,39.22
2016-06-06T10:38:13.172Z,38.41
2016-06-06T10:39:13.192Z,39.11
2016-06-06T10:40:13.194Z,40.39
2016-06-06T10:41:13.212Z,41.35
2016-06-06T10:42:13.199Z,41.05
2016-06-06T10:43:13.217Z,41.56
2016-06-06T10:44:13.470Z,39.8
2016-06-06T10:45:13.223Z,40.39
2016-06-06T10:46:13.225Z,38.93
2016-06-06T10:47:13.228Z,38.74
2016-06-06T10:48:13.247Z,38.15
2016-06-06T10:49:13.249Z,36.98
2016-06-06T10:50:13.236Z,38.64
2016-06-06T10:51:13.255Z,38.46
2016-06-06T10:52:13.242Z,39.54
2016-06-06T10:53:13.260Z,40.51
2016-06-06T10:54:13.263Z,40.8
2016-06-06T10:55:13.266Z,38.54
2016-06-06T10:56:13.283Z,37.38
2016-06-06T10:57:13.286Z,38.46
2016-06-06T10:58:13.288Z,39.47
2016-06-06T10:59:13.651Z,38.78
2016-06-06T11:00:13.826Z,37.19
2016-06-06T11:01:13.297Z,37.7
2016-06-06T11:02:13.299Z,38.09
2016-06-06T11:03:13.302Z,38.09
2016-06-06T11:04:13.305Z,37.48
2016-06-06T11:05:13.324Z,39.15
2016-06-06T11:06:13.327Z,38.98
2016-06-06T11:07:13.329Z,39.56
2016-06-06T11:08:13.347Z,38.46
2016-06-06T11:09:13.334Z,38.46
2016-06-06T11:10:13.337Z,38.17
2016-06-06T11:11:13.340Z,38.09
2016-06-06T11:12:13.358Z,39.66
2016-06-06T11:13:13.361Z,38.48
2016-06-06T11:14:13.817Z,38.66
2016-06-06T11:15:14.147Z,38.85
2016-06-06T11:16:13.384Z,39.25
2016-06-06T11:17:13.386Z,38.39
2016-06-06T11:18:13.375Z,39.86
2016-06-06T11:19:13.377Z,39.47
2016-06-06T11:20:13.395Z,39.29
2016-06-06T11:21:13.398Z,39.37
2016-06-06T11:22:13.400Z,38.39
2016-06-06T11:23:13.419Z,38.6
2016-06-06T11:24:13.406Z,38.48
2016-06-06T11:25:13.424Z,36.24
2016-06-06T11:26:13.427Z,37.7
2016-06-06T11:27:13.430Z,38.09
2016-06-06T11:28:13.463Z,39.17
2016-06-06T11:29:13.341Z,38.31
2016-06-06T11:30:13.907Z,38.4
2016-06-06T11:31:13.456Z,38.39
2016-06-06T11:32:13.474Z,39.95
2016-06-06T11:33:13.462Z,37.7
2016-06-06T11:34:13.464Z,38.66
2016-06-06T11:35:13.467Z,38.46
2016-06-06T11:36:13.485Z,40.23
2016-06-06T11:37:13.488Z,39.25
2016-06-06T11:38:13.490Z,39.76
2016-06-06T11:39:13.509Z,38.76
2016-06-06T11:40:13.495Z,38.76
2016-06-06T11:41:13.514Z,37.8
2016-06-06T11:42:13.517Z,38.78
2016-06-06T11:43:13.520Z,38.48
2016-06-06T11:44:13.522Z,38.09
2016-06-06T11:45:13.540Z,37.3
2016-06-06T11:46:13.528Z,37.62
2016-06-06T11:47:13.530Z,37.42
2016-06-06T11:48:13.533Z,37.34
2016-06-06T11:49:13.551Z,38.11
2016-06-06T11:50:13.554Z,36.54
2016-06-06T11:51:13.556Z,37.99
2016-06-06T11:52:13.575Z,38.6
2016-06-06T11:53:13.578Z,38.4
2016-06-06T11:54:13.424Z,37.44
2016-06-06T11:55:13.583Z,37.74
2016-06-06T11:56:13.430Z,37.54
2016-06-06T11:57:13.588Z,36.26
2016-06-06T11:58:13.607Z,35.88
2016-06-06T11:59:13.452Z,36.46
2016-06-06T12:00:13.613Z,36.46
2016-06-06T12:01:13.615Z,37.84
2016-06-06T12:02:13.460Z,36.95
2016-06-06T12:03:13.636Z,36.85
2016-06-06T12:04:13.639Z,35.49
2016-06-06T12:05:13.641Z,36.18
2016-06-06T12:06:13.643Z,35.59
2016-06-06T12:07:13.663Z,34.8
2016-06-06T12:08:13.665Z,36.38
2016-06-06T12:09:13.667Z,36.28
2016-06-06T12:10:13.671Z,37.46
2016-06-06T12:11:13.673Z,38.15
2016-06-06T12:12:13.676Z,36.47
2016-06-06T12:13:13.538Z,36.08
2016-06-06T12:14:13.712Z,35.59
2016-06-06T12:15:13.700Z,36.97
2016-06-06T12:16:13.703Z,34.8
2016-06-06T12:17:13.705Z,37.97
2016-06-06T12:18:13.723Z,36.3
2016-06-06T12:19:13.726Z,36.11
2016-06-06T12:20:13.728Z,33.95
2016-06-06T12:21:13.731Z,36.38
2016-06-06T12:22:13.734Z,36.97
2016-06-06T12:23:13.736Z,31.57
2016-06-06T12:24:13.739Z,33.72
2016-06-06T12:25:13.757Z,33.72
2016-06-06T12:26:13.741Z,33.82
2016-06-06T12:27:13.760Z,33.41
2016-06-06T12:28:13.763Z,33.31
2016-06-06T12:29:13.609Z,33.59
2016-06-06T12:30:13.830Z,33.49
2016-06-06T12:31:13.786Z,34.18
2016-06-06T12:32:13.789Z,34.67
2016-06-06T12:33:13.808Z,36.24
2016-06-06T12:34:13.794Z,34.87
2016-06-06T12:35:13.828Z,36.05
2016-06-06T12:36:13.800Z,33.31
2016-06-06T12:37:13.818Z,34.31
2016-06-06T12:38:13.665Z,36.18
2016-06-06T12:39:13.823Z,34.22
2016-06-06T12:40:13.826Z,33.15
2016-06-06T12:41:13.845Z,33.25
2016-06-06T12:42:13.848Z,31.69
2016-06-06T12:43:13.850Z,34.72
2016-06-06T12:44:13.869Z,34.63
2016-06-06T12:45:14.764Z,33.15
2016-06-06T12:46:13.873Z,33.07
2016-06-06T12:47:13.876Z,33.75
2016-06-06T12:48:13.879Z,32.69
2016-06-06T12:49:13.882Z,32.49
2016-06-06T12:50:13.884Z,32.1
2016-06-06T12:51:13.887Z,33.59
2016-06-06T12:52:13.906Z,34.48
2016-06-06T12:53:13.908Z,31.72
2016-06-06T12:54:13.911Z,33.51
2016-06-06T12:55:13.930Z,32.82
2016-06-06T12:56:13.933Z,32.14
2016-06-06T12:57:13.935Z,31.45
2016-06-06T12:58:13.937Z,31.85
2016-06-06T12:59:13.986Z,31.83
2016-06-06T13:00:14.208Z,31.24
2016-06-06T13:01:13.961Z,31.34
2016-06-06T13:02:13.964Z,31.14
2016-06-06T13:03:13.966Z,31.83
2016-06-06T13:04:13.985Z,33.01
2016-06-06T13:05:13.987Z,31.93
2016-06-06T13:06:13.991Z,30.35
2016-06-06T13:07:13.993Z,30.65
2016-06-06T13:08:14.010Z,31.44
2016-06-06T13:09:13.999Z,31.73
2016-06-06T13:10:14.001Z,30.94
2016-06-06T13:11:14.019Z,31.42
2016-06-06T13:12:14.021Z,30.15
2016-06-06T13:13:14.024Z,31.03
2016-06-06T13:14:13.871Z,32.49
2016-06-06T13:15:14.046Z,31.8
2016-06-06T13:16:14.032Z,31.62
2016-06-06T13:17:14.035Z,31.62
2016-06-06T13:18:14.053Z,31.13
2016-06-06T13:19:14.103Z,30.91
2016-06-06T13:20:14.059Z,30.91
2016-06-06T13:21:14.062Z,31.9
2016-06-06T13:22:14.064Z,31.21
2016-06-06T13:23:14.083Z,30.62
2016-06-06T13:24:14.070Z,30.54
2016-06-06T13:25:14.088Z,33.28
2016-06-06T13:26:14.091Z,31.39
2016-06-06T13:27:14.094Z,32.18
2016-06-06T13:28:14.096Z,32.86
2016-06-06T13:29:14.099Z,33.33
2016-06-06T13:30:14.117Z,33.89
2016-06-06T13:31:14.119Z,34.58
2016-06-06T13:32:14.122Z,35.74
2016-06-06T13:33:14.110Z,34.34
2016-06-06T13:34:14.127Z,36.6
2016-06-06T13:35:14.130Z,36.4
2016-06-06T13:36:14.133Z,36.11
2016-06-06T13:37:14.136Z,37.56
2016-06-06T13:38:14.138Z,37.86
2016-06-06T13:39:14.141Z,37.56
2016-06-06T13:40:14.160Z,37.35
2016-06-06T13:41:14.146Z,37.94
2016-06-06T13:42:14.149Z,37.54
2016-06-06T13:43:14.151Z,37.65
2016-06-06T13:44:14.358Z,37.35
2016-06-06T13:45:15.221Z,37.33
2016-06-06T13:46:14.176Z,38.02
2016-06-06T13:47:14.178Z,37.23
2016-06-06T13:48:14.182Z,37.82
2016-06-06T13:49:14.168Z,37.21
2016-06-06T13:50:14.170Z,38.68
2016-06-06T13:51:14.173Z,39.64
2016-06-06T13:52:14.176Z,38.76
2016-06-06T13:53:14.195Z,38.47
2016-06-06T13:54:14.197Z,39.35
2016-06-06T13:55:14.184Z,39.25
2016-06-06T13:56:14.187Z,38.08
2016-06-06T13:57:14.189Z,40.14
2016-06-06T13:58:14.192Z,40.9
2016-06-06T13:59:14.210Z,41.58
2016-06-06T14:00:14.229Z,42.27
2016-06-06T14:01:14.200Z,41.27
2016-06-06T14:02:14.203Z,42.64
2016-06-06T14:03:14.206Z,42.35
2016-06-06T14:04:14.208Z,43.01
2016-06-06T14:05:14.211Z,41.54
2016-06-06T14:06:14.214Z,43.59
2016-06-06T14:07:14.217Z,43.1
2016-06-06T14:08:14.219Z,42.71
2016-06-06T14:09:14.222Z,43.49
2016-06-06T14:10:14.224Z,44.18
2016-06-06T14:11:14.227Z,42.81
2016-06-06T14:12:14.246Z,43.49
2016-06-06T14:13:14.218Z,42.61
2016-06-06T14:14:14.626Z,43.69
2016-06-06T14:15:14.223Z,43.89
2016-06-06T14:16:14.226Z,42.81
2016-06-06T14:17:14.229Z,43.87
2016-06-06T14:18:14.231Z,44.74
2016-06-06T14:19:14.248Z,45.04
2016-06-06T14:20:14.236Z,45.72
2016-06-06T14:21:14.239Z,44.82
2016-06-06T14:22:14.241Z,44.92
2016-06-06T14:23:14.244Z,45.12
2016-06-06T14:24:14.231Z,45.8
2016-06-06T14:25:14.234Z,46
2016-06-06T14:26:14.237Z,47.24
2016-06-06T14:27:14.083Z,46.75
2016-06-06T14:28:14.241Z,48.12
2016-06-06T14:29:14.245Z,47.05
2016-06-06T14:30:14.528Z,45.97
2016-06-06T14:31:14.249Z,46.85
2016-06-06T14:32:14.237Z,47.73
2016-06-06T14:33:14.239Z,45.97
2016-06-06T14:34:14.242Z,47.24
2016-06-06T14:35:14.229Z,46.14
2016-06-06T14:36:14.232Z,47.31
2016-06-06T14:37:14.235Z,47.12
2016-06-06T14:38:14.238Z,46.92
2016-06-06T14:39:14.240Z,46.83
2016-06-06T14:40:14.244Z,47.8
2016-06-06T14:41:14.246Z,48.27
2016-06-06T14:42:14.248Z,48.46
2016-06-06T14:43:14.235Z,50.21
2016-06-06T14:44:14.238Z,49.44
2016-06-06T14:45:14.241Z,49.24
2016-06-06T14:46:14.228Z,48.56
2016-06-06T14:47:14.231Z,48.66
2016-06-06T14:48:14.233Z,49.9
2016-06-06T14:49:14.237Z,49.61
2016-06-06T14:50:14.239Z,51.26
2016-06-06T14:51:14.225Z,52.04
2016-06-06T14:52:14.228Z,51.95
2016-06-06T14:53:14.262Z,51.53
2016-06-06T14:54:14.233Z,52.22
2016-06-06T14:55:14.236Z,52.12
2016-06-06T14:56:14.223Z,52.89
2016-06-06T14:57:14.226Z,53.58
2016-06-06T14:58:14.228Z,52.31
2016-06-06T14:59:14.217Z,51.73
2016-06-06T15:00:14.234Z,51.43
2016-06-06T15:01:14.237Z,53.38
2016-06-06T15:02:14.208Z,52.5
2016-06-06T15:03:14.227Z,52.7
2016-06-06T15:04:14.214Z,52.7
2016-06-06T15:05:14.216Z,53.28
2016-06-06T15:06:14.219Z,52.22
2016-06-06T15:07:14.206Z,53.55
2016-06-06T15:08:14.255Z,53.16
2016-06-06T15:09:14.212Z,54.52
2016-06-06T15:10:14.199Z,53.94
2016-06-06T15:11:14.045Z,53.26
2016-06-06T15:12:14.204Z,53.94
2016-06-06T15:13:14.207Z,54.23
2016-06-06T15:14:14.287Z,54.62
2016-06-06T15:15:15.352Z,54.43
2016-06-06T15:16:14.199Z,54.62
2016-06-06T15:17:14.186Z,54.43
2016-06-06T15:18:14.189Z,55.27
2016-06-06T15:19:14.379Z,54.4
2016-06-06T15:20:14.179Z,55.18
2016-06-06T15:21:14.182Z,55.93
2016-06-06T15:22:14.184Z,56.03
2016-06-06T15:23:14.171Z,56.32
2016-06-06T15:24:14.174Z,55.64
2016-06-06T15:25:14.162Z,56.41
2016-06-06T15:26:14.164Z,57.49
2016-06-06T15:27:14.166Z,57.29
2016-06-06T15:28:14.153Z,56.61
2016-06-06T15:29:29.268Z,57.29
2016-06-06T15:30:14.862Z,57.59
2016-06-06T15:31:14.146Z,57.68
2016-06-06T15:32:14.164Z,57.1
2016-06-06T15:33:14.151Z,57.39
2016-06-06T15:34:14.138Z,57.29
2016-06-06T15:35:14.142Z,57.2
2016-06-06T15:36:14.144Z,56.61
2016-06-06T15:37:14.131Z,57.97
2016-06-06T15:38:14.118Z,57.75
2016-06-06T15:39:14.121Z,57.17
2016-06-06T15:40:14.124Z,57.17
2016-06-06T15:41:14.110Z,57.65
2016-06-06T15:42:14.113Z,58.04
2016-06-06T15:43:14.115Z,57.95
2016-06-06T15:44:14.118Z,57.07
2016-06-06T15:45:14.433Z,57.75
2016-06-06T15:46:14.108Z,57.53
2016-06-06T15:47:14.096Z,57.36
2016-06-06T15:48:14.098Z,57.53
2016-06-06T15:49:14.085Z,57.33
2016-06-06T15:50:14.088Z,57.23
2016-06-06T15:51:14.075Z,58.5
2016-06-06T15:52:14.077Z,57.62
2016-06-06T15:53:14.065Z,59.08
2016-06-06T15:54:14.067Z,58.01
2016-06-06T15:55:14.070Z,58.79
2016-06-06T15:56:14.057Z,58.57
2016-06-06T15:57:14.059Z,58.18
2016-06-06T15:58:14.062Z,57.98
2016-06-06T15:59:14.065Z,57.89
2016-06-06T16:00:14.053Z,57.4
2016-06-06T16:01:14.070Z,58.86
2016-06-06T16:02:14.042Z,58.76
2016-06-06T16:03:14.045Z,59.64
2016-06-06T16:04:14.063Z,58.67
2016-06-06T16:05:14.019Z,59.25
2016-06-06T16:06:14.022Z,59.74
2016-06-06T16:07:14.024Z,58.76
2016-06-06T16:08:14.011Z,58.67
2016-06-06T16:09:14.014Z,58.57
2016-06-06T16:10:14.017Z,59.25
2016-06-06T16:11:14.003Z,59.05
2016-06-06T16:12:14.053Z,58.76
2016-06-06T16:13:13.994Z,58.37
2016-06-06T16:14:13.997Z,59.08
2016-06-06T16:15:13.889Z,58.31
2016-06-06T16:16:14.033Z,58.95
2016-06-06T16:17:13.973Z,59.18
2016-06-06T16:18:13.976Z,59.44
2016-06-06T16:19:13.963Z,59.74
2016-06-06T16:20:13.966Z,59.44
2016-06-06T16:21:13.952Z,59.83
2016-06-06T16:22:13.955Z,59.76
2016-06-06T16:23:13.958Z,60.31
2016-06-06T16:24:13.945Z,58.89
2016-06-06T16:25:13.948Z,58.95
2016-06-06T16:26:13.951Z,59.86
2016-06-06T16:27:13.953Z,59.95
2016-06-06T16:28:13.940Z,60.64
2016-06-06T16:29:13.927Z,59.47
2016-06-06T16:30:13.929Z,59.76
2016-06-06T16:31:13.932Z,59.28
2016-06-06T16:32:13.779Z,60.35
2016-06-06T16:33:13.922Z,60.74
2016-06-06T16:34:13.909Z,60.74
2016-06-06T16:35:13.897Z,60.93
2016-06-06T16:36:13.900Z,61.12
2016-06-06T16:37:13.902Z,59.95
2016-06-06T16:38:13.889Z,60.31
2016-06-06T16:39:13.892Z,60.93
2016-06-06T16:40:13.878Z,59.95
2016-06-06T16:41:13.881Z,60.74
2016-06-06T16:42:13.869Z,60.74
2016-06-06T16:43:13.876Z,60.05
2016-06-06T16:44:13.868Z,60.44
2016-06-06T16:45:13.875Z,60.64
2016-06-06T16:46:13.883Z,59.86
2016-06-06T16:47:13.875Z,60.83
2016-06-06T16:48:13.880Z,59.95
2016-06-06T16:49:13.869Z,61.51
2016-06-06T16:50:13.872Z,60.61
2016-06-06T16:51:13.877Z,60.31
2016-06-06T16:52:13.865Z,61.19
2016-06-06T16:53:13.869Z,61.51
2016-06-06T16:54:13.857Z,60.64
2016-06-06T16:55:13.861Z,61.38
2016-06-06T16:56:13.848Z,61.48
2016-06-06T16:57:13.852Z,60.74
2016-06-06T16:58:13.839Z,61.61
2016-06-06T16:59:13.841Z,61.51
2016-06-06T17:00:14.205Z,62.1
2016-06-06T17:01:13.833Z,61.12
2016-06-06T17:02:13.836Z,60.64
2016-06-06T17:03:13.823Z,60.93
2016-06-06T17:04:13.825Z,60.96
2016-06-06T17:05:13.828Z,59.79
2016-06-06T17:06:13.814Z,60.47
2016-06-06T17:07:13.818Z,60.47
2016-06-06T17:08:13.820Z,59.69
2016-06-06T17:09:13.808Z,60.18
2016-06-06T17:10:13.811Z,60.57
2016-06-06T17:11:13.797Z,60.08
2016-06-06T17:12:13.800Z,59.99
2016-06-06T17:13:13.803Z,60.08
2016-06-06T17:14:13.790Z,60.38
2016-06-06T17:15:13.793Z,60.18
2016-06-06T17:16:13.624Z,60.5
2016-06-06T17:17:13.782Z,59.92
2016-06-06T17:18:13.785Z,59.69
2016-06-06T17:19:13.975Z,58.85
2016-06-06T17:20:13.774Z,59.79
2016-06-06T17:21:13.777Z,59.79
2016-06-06T17:22:13.780Z,58.53
2016-06-06T17:23:13.768Z,59.5
2016-06-06T17:24:13.770Z,59.01
2016-06-06T17:25:13.757Z,60.18
2016-06-06T17:26:13.759Z,60.47
2016-06-06T17:27:13.762Z,59.89
2016-06-06T17:28:13.765Z,60.77
2016-06-06T17:29:13.751Z,60.25
2016-06-06T17:30:13.755Z,60.54
2016-06-06T17:31:13.742Z,61.51
2016-06-06T17:32:13.728Z,61.61
2016-06-06T17:33:13.732Z,61.22
2016-06-06T17:34:13.734Z,60.74
2016-06-06T17:35:13.564Z,61.32
2016-06-06T17:36:13.724Z,61.51
2016-06-06T17:37:14.258Z,61
2016-06-06T17:38:13.729Z,61.87
2016-06-06T17:39:13.717Z,61.97
2016-06-06T17:40:13.703Z,61.87
2016-06-06T17:41:13.705Z,61.97
2016-06-06T17:42:13.694Z,62.62
2016-06-06T17:43:13.696Z,63.88
2016-06-06T17:44:13.699Z,63.49
2016-06-06T17:45:13.763Z,63.68
2016-06-06T17:46:13.673Z,63.78
2016-06-06T17:47:13.519Z,65.24
2016-06-06T17:48:13.677Z,64.43
2016-06-06T17:49:13.681Z,63.85
2016-06-06T17:50:13.668Z,63.75
2016-06-06T17:51:13.670Z,63.85
2016-06-06T17:52:13.657Z,63.95
2016-06-06T17:53:13.660Z,64.62
2016-06-06T17:54:13.648Z,64.33
2016-06-06T17:55:13.509Z,64.72
2016-06-06T17:56:13.637Z,65.01
2016-06-06T17:57:13.640Z,64.2
2016-06-06T17:58:13.642Z,64.69
2016-06-06T17:59:13.629Z,64.5
2016-06-06T18:00:13.617Z,65.27
2016-06-06T18:01:13.620Z,64.78
2016-06-06T18:02:13.606Z,64.69
2016-06-06T18:03:13.609Z,65.17
2016-06-06T18:04:13.596Z,65.27
2016-06-06T18:05:13.598Z,65.17
2016-06-06T18:06:13.586Z,64.78
2016-06-06T18:07:13.589Z,64.98
2016-06-06T18:08:13.575Z,65.75
2016-06-06T18:09:13.578Z,65.47
2016-06-06T18:10:13.566Z,65.75
2016-06-06T18:11:13.568Z,65.47
2016-06-06T18:12:13.555Z,65.37
2016-06-06T18:13:13.558Z,65.66
2016-06-06T18:14:13.545Z,65.37
2016-06-06T18:15:13.563Z,66.11
2016-06-06T18:16:13.535Z,65.95
2016-06-06T18:17:13.538Z,65.82
2016-06-06T18:18:13.524Z,66.3
2016-06-06T18:19:13.527Z,66.2
2016-06-06T18:20:13.514Z,66.69
2016-06-06T18:21:13.361Z,65.43
2016-06-06T18:22:13.504Z,67.08
2016-06-06T18:23:13.491Z,65.82
2016-06-06T18:24:13.337Z,66.4
2016-06-06T18:25:13.482Z,65.82
2016-06-06T18:26:13.483Z,66.6
2016-06-06T18:27:13.470Z,65.72
2016-06-06T18:28:13.473Z,66.27
2016-06-06T18:29:13.460Z,65.92
2016-06-06T18:30:13.744Z,66.89
2016-06-06T18:31:13.451Z,66.89
2016-06-06T18:32:13.453Z,66.89
2016-06-06T18:33:13.439Z,66.79
2016-06-06T18:34:13.442Z,67.34
2016-06-06T18:35:13.445Z,67.53
2016-06-06T18:36:13.417Z,67.44
2016-06-06T18:37:13.419Z,67.82
2016-06-06T18:38:13.422Z,67.53
2016-06-06T18:39:13.425Z,67.63
2016-06-06T18:40:13.396Z,67.63
2016-06-06T18:41:13.399Z,68.02
2016-06-06T18:42:13.386Z,69.37
2016-06-06T18:43:13.388Z,69.05
2016-06-06T18:44:13.392Z,69.15
2016-06-06T18:45:13.238Z,68.76
2016-06-06T18:46:13.366Z,69.24
2016-06-06T18:47:13.368Z,69.82
2016-06-06T18:48:13.214Z,68.85
2016-06-06T18:49:13.358Z,69.53
2016-06-06T18:50:13.344Z,69.05
2016-06-06T18:51:13.347Z,69.92
2016-06-06T18:52:13.335Z,69.4
2016-06-06T18:53:13.322Z,69.31
2016-06-06T18:54:13.324Z,69.31
2016-06-06T18:55:13.311Z,69.69
2016-06-06T18:56:13.315Z,69.5
2016-06-06T18:57:13.301Z,69.98
2016-06-06T18:58:13.304Z,69.4
2016-06-06T18:59:13.291Z,69.59
2016-06-06T19:00:13.293Z,70.56
2016-06-06T19:01:13.280Z,70.18
2016-06-06T19:02:13.283Z,70.18
2016-06-06T19:03:13.270Z,70.47
2016-06-06T19:04:13.273Z,70.72
2016-06-06T19:05:13.259Z,70.43
2016-06-06T19:06:13.247Z,70.43
2016-06-06T19:07:13.234Z,70.82
2016-06-06T19:08:13.237Z,70.72
2016-06-06T19:09:13.224Z,70.53
2016-06-06T19:10:13.227Z,71.59
2016-06-06T19:11:13.214Z,70.62
2016-06-06T19:12:13.201Z,70.92
2016-06-06T19:13:13.203Z,71.2
2016-06-06T19:14:13.206Z,71.4
2016-06-06T19:15:13.193Z,71.69
2016-06-06T19:16:13.197Z,71.5
2016-06-06T19:17:13.183Z,72.08
2016-06-06T19:18:13.170Z,72.24
2016-06-06T19:19:13.376Z,72.14
2016-06-06T19:20:13.160Z,72.14
2016-06-06T19:21:13.163Z,72.33
2016-06-06T19:22:13.150Z,72.52
2016-06-06T19:23:13.137Z,72.04
2016-06-06T19:24:13.140Z,72.04
2016-06-06T19:25:13.126Z,73.01
2016-06-06T19:26:13.129Z,72.72
2016-06-06T19:27:13.116Z,72.52
2016-06-06T19:28:13.103Z,72.97
2016-06-06T19:29:13.106Z,73.26
2016-06-06T19:30:13.093Z,73.16
2016-06-06T19:31:13.080Z,73.16
2016-06-06T19:32:13.082Z,72.88
2016-06-06T19:33:13.070Z,72.88
2016-06-06T19:34:13.073Z,72.49
2016-06-06T19:35:13.059Z,73.36
2016-06-06T19:36:13.062Z,73.07
2016-06-06T19:37:13.050Z,73.16
2016-06-06T19:38:13.037Z,73.26
2016-06-06T19:39:13.039Z,73.74
2016-06-06T19:40:13.026Z,73.84
2016-06-06T19:41:12.873Z,73.16
2016-06-06T19:42:13.016Z,74
2016-06-06T19:43:13.003Z,73.8
2016-06-06T19:44:12.990Z,74.19
2016-06-06T19:45:12.992Z,74.1
2016-06-06T19:46:12.980Z,73.8
2016-06-06T19:47:12.983Z,74.29
2016-06-06T19:48:13.922Z,74.68
2016-06-06T19:49:12.972Z,74.77
2016-06-06T19:50:12.959Z,75.16
2016-06-06T19:51:12.946Z,75.16
2016-06-06T19:52:12.949Z,75.35
2016-06-06T19:53:12.936Z,75.35
2016-06-06T19:54:12.938Z,75.35
2016-06-06T19:55:12.941Z,75.16
2016-06-06T19:56:12.929Z,75.41
2016-06-06T19:57:12.916Z,75.41
2016-06-06T19:58:12.902Z,75.12
2016-06-06T19:59:12.890Z,75.99
2016-06-06T20:00:12.892Z,75.51
2016-06-06T20:01:12.879Z,75.22
2016-06-06T20:02:12.882Z,75.7
2016-06-06T20:03:12.712Z,75.7
2016-06-06T20:04:12.856Z,75.89
2016-06-06T20:05:12.860Z,75.89
2016-06-06T20:06:12.845Z,75.99
2016-06-06T20:07:12.834Z,75.99
2016-06-06T20:08:12.836Z,76.18
2016-06-06T20:09:12.682Z,76.05
2016-06-06T20:10:12.809Z,76.18
2016-06-06T20:11:12.812Z,76.92
2016-06-06T20:12:12.800Z,77.21
2016-06-06T20:13:12.802Z,77.01
2016-06-06T20:14:12.789Z,77.4
2016-06-06T20:15:12.652Z,77.4
2016-06-06T20:16:12.779Z,77.5
2016-06-06T20:17:12.766Z,77.59
2016-06-06T20:18:12.753Z,77.78
2016-06-06T20:19:12.756Z,77.59
2016-06-06T20:20:12.586Z,77.78
2016-06-06T20:21:12.747Z,77.5
2016-06-06T20:22:12.733Z,77.4
2016-06-06T20:23:12.719Z,78.36
2016-06-06T20:24:12.722Z,78.36
2016-06-06T20:25:12.710Z,77.78
2016-06-06T20:26:12.696Z,78.27
2016-06-06T20:27:12.699Z,78.61
2016-06-06T20:28:12.687Z,78.52
2016-06-06T20:29:12.690Z,78.61
2016-06-06T20:30:12.676Z,78.91
2016-06-06T20:31:12.663Z,78.71
2016-06-06T20:32:12.666Z,78.81
2016-06-06T20:33:12.654Z,78.71
2016-06-06T20:34:12.641Z,79.19
2016-06-06T20:35:12.627Z,79.29
2016-06-06T20:36:12.629Z,79.29
2016-06-06T20:37:12.617Z,79.68
2016-06-06T20:38:12.604Z,79.19
2016-06-06T20:39:12.606Z,79
2016-06-06T20:40:12.625Z,79.29
2016-06-06T20:41:12.581Z,79.58
2016-06-06T20:42:12.584Z,79.77
2016-06-06T20:43:12.586Z,80.12
2016-06-06T20:44:12.558Z,80.31
2016-06-06T20:45:12.560Z,80.12
2016-06-06T20:46:12.547Z,80.02
2016-06-06T20:47:12.534Z,80.12
2016-06-06T20:48:12.537Z,80.31
2016-06-06T20:49:12.524Z,80.12
2016-06-06T20:50:12.527Z,80.02
2016-06-06T20:51:12.513Z,80.12
2016-06-06T20:52:12.501Z,79.93
2016-06-06T20:53:12.504Z,80.31
2016-06-06T20:54:12.491Z,80.6
2016-06-06T20:55:12.477Z,80.51
2016-06-06T20:56:12.480Z,80.31
2016-06-06T20:57:12.452Z,80.51
2016-06-06T20:58:12.455Z,80.31
2016-06-06T20:59:12.441Z,80.51
2016-06-06T21:00:12.429Z,80.69
2016-06-06T21:01:12.432Z,80.69
2016-06-06T21:02:12.419Z,80.79
2016-06-06T21:03:12.407Z,80.69
2016-06-06T21:04:12.408Z,80.51
2016-06-06T21:05:12.395Z,80.89
2016-06-06T21:06:12.555Z,81.18
2016-06-06T21:07:12.385Z,81.57
2016-06-06T21:08:12.372Z,81.18
2016-06-06T21:09:12.359Z,81.52
2016-06-06T21:10:12.362Z,81.27
2016-06-06T21:11:12.349Z,80.89
2016-06-06T21:12:12.336Z,81.18
2016-06-06T21:13:12.339Z,81.24
2016-06-06T21:14:12.342Z,80.89
2016-06-06T21:15:12.314Z,81.04
2016-06-06T21:16:12.316Z,81.09
2016-06-06T21:17:12.303Z,81.24
2016-06-06T21:18:12.305Z,81.43
2016-06-06T21:19:12.512Z,81.57
2016-06-06T21:20:12.279Z,82.1
2016-06-06T21:21:12.250Z,81.81
2016-06-06T21:22:12.269Z,81.81
2016-06-06T21:23:12.256Z,81.52
2016-06-06T21:24:12.243Z,81.91
2016-06-06T21:25:12.246Z,82.1
2016-06-06T21:26:12.233Z,82.2
2016-06-06T21:27:12.221Z,82.49
2016-06-06T21:28:12.207Z,82.49
2016-06-06T21:29:12.210Z,82.1
2016-06-06T21:30:12.197Z,82.1
2016-06-06T21:31:12.184Z,82.78
2016-06-06T21:32:12.202Z,83.26
2016-06-06T21:33:12.173Z,82.59
2016-06-06T21:34:12.176Z,82.78
2016-06-06T21:35:13.038Z,83.36